Tombarra — MPRD6 — position and weather

sailwx.info

Track history (hours):
 
Tides and Currents Weather Stations Pressure Air Temp Water Temp Dewpoint Dewpoint Depression Visibility Wind Speed Wind Dir Waves Ship Positions

Tombarra

Last reported at 2016-Jun-25 10:26 UTC. Time now 2016-Jun-28 13:25 UTC.
Position N 49°48' W 004°35'.

Length 199 m; draft 10.4 m.

Type: Ship. MMSI: 232971000.

Date/timePositionNaut miles runAvg speedWind from/ knotsBaromVisibWave heightAir tempDewpointWater temp
2016-Jun-25 10:26N 49°48' W 004°35'1517.0
2016-Jun-25 09:33N 49°52' W 004°13'1616.4
2016-Jun-25 08:33N 49°57' W 003°48'1716.8
2016-Jun-25 07:33N 50°02' W 003°24'1817.9
2016-Jun-25 06:33N 50°08' W 002°57'1919.2
2016-Jun-25 05:34N 50°14' W 002°28'2820.7
2016-Jun-25 04:11N 50°22' W 001°46'1420.4
2016-Jun-25 03:31N 50°26' W 001°26'1818.6
2016-Jun-25 02:33N 50°33' W 000°60'1111.1
2016-Jun-25 01:33N 50°44' W 001°03'1212.0
2016-Jun-25 00:33N 50°50' W 001°19'4 3.7
2016-Jun-24 23:32N 50°53' W 001°24'0 0.0
2016-Jun-24 22:32N 50°53' W 001°24'0 0.0
2016-Jun-24 21:32N 50°53' W 001°24'0 0.0
2016-Jun-24 20:32N 50°53' W 001°24'0 0.0
2016-Jun-24 19:32N 50°53' W 001°24'0 0.0
2016-Jun-24 18:32N 50°53' W 001°24'0 0.0
2016-Jun-24 17:26N 50°53' W 001°24'0 0.0
2016-Jun-24 16:32N 50°53' W 001°24'0 0.0
2016-Jun-24 15:32N 50°53' W 001°24'0 0.0
2016-Jun-24 14:29N 50°53' W 001°24'0 0.0
2016-Jun-24 13:32N 50°53' W 001°24'0 0.0
2016-Jun-24 12:32N 50°53' W 001°24'0 0.0
2016-Jun-24 11:32N 50°53' W 001°24'0 0.0
2016-Jun-24 10:32N 50°53' W 001°24'0 0.0
2016-Jun-24 09:32N 50°53' W 001°24'0 0.0
2016-Jun-24 08:32N 50°53' W 001°24'0 0.0
2016-Jun-24 07:32N 50°53' W 001°24'0 0.0
2016-Jun-24 04:32N 50°53' W 001°24'0 0.1
2016-Jun-24 03:33N 50°53' W 001°23'6 5.7
2016-Jun-24 02:33N 50°49' W 001°18'1313.1
2016-Jun-24 01:34N 50°43' W 000°59'8 7.5
2016-Jun-24 00:33N 50°36' W 000°53'1211.5
2016-Jun-23 23:33N 50°35' W 000°35'1616.2
2016-Jun-23 22:34N 50°33' W 000°10'1615.9
2016-Jun-23 21:33N 50°35' E 000°15'2517.2
2016-Jun-23 20:06N 50°45' E 000°51'1019.1
2016-Jun-23 19:33N 50°52' E 001°04'1919.1
2016-Jun-23 18:33N 51°04' E 001°27'1817.8
2016-Jun-23 17:33N 51°15' E 001°49'1414.4
2016-Jun-23 16:33N 51°23' E 002°08'1616.0
2016-Jun-23 15:33N 51°23' E 002°34'1414.0
2016-Jun-23 14:33N 51°23' E 002°56'1010.2
2016-Jun-23 13:33N 51°21' E 003°12'2 1.7
2016-Jun-23 12:33N 51°20' E 003°13'1 0.8
2016-Jun-23 11:32N 51°19' E 003°14'0 0.0
2016-Jun-23 10:32N 51°19' E 003°14'0 0.0
2016-Jun-23 09:32N 51°19' E 003°14'0 0.0
2016-Jun-23 08:32N 51°19' E 003°14'0 0.0
2016-Jun-23 07:32N 51°19' E 003°14'0 0.0
2016-Jun-23 05:32N 51°19' E 003°14'0 0.0
2016-Jun-23 04:32N 51°19' E 003°14'0 0.0
2016-Jun-23 03:32N 51°19' E 003°14'0 0.0
2016-Jun-23 02:32N 51°19' E 003°14'0 0.0
2016-Jun-23 01:29N 51°19' E 003°14'0 0.0
2016-Jun-23 00:32N 51°19' E 003°14'0 0.0
2016-Jun-22 23:29N 51°19' E 003°14'0 0.0
2016-Jun-22 22:29N 51°19' E 003°14'0 0.0
2016-Jun-22 21:32N 51°19' E 003°14'0 0.0
2016-Jun-22 20:32N 51°19' E 003°14'0 0.0
2016-Jun-22 19:32N 51°19' E 003°14'0 0.0
2016-Jun-22 18:32N 51°19' E 003°14'0 0.0
2016-Jun-22 17:32N 51°19' E 003°14'0 0.0
2016-Jun-22 16:32N 51°19' E 003°14'0 0.0
2016-Jun-22 15:32N 51°19' E 003°14'0 0.0
2016-Jun-22 14:32N 51°19' E 003°14'0 0.0
2016-Jun-22 13:32N 51°19' E 003°14'0 0.0
2016-Jun-22 12:32N 51°19' E 003°14'0 0.0
2016-Jun-22 11:32N 51°19' E 003°14'0 0.0
2016-Jun-22 10:32N 51°19' E 003°14'0 0.0
2016-Jun-22 09:32N 51°19' E 003°14'0 0.0
2016-Jun-22 08:29N 51°19' E 003°14'0 0.0
2016-Jun-22 07:29N 51°19' E 003°14'0 0.0
2016-Jun-22 06:32N 51°19' E 003°14'0 0.0
2016-Jun-22 05:32N 51°19' E 003°14'0 0.0
2016-Jun-22 04:32N 51°19' E 003°14'0 0.0
2016-Jun-22 03:32N 51°19' E 003°14'0 0.0
2016-Jun-22 02:29N 51°19' E 003°14'0 0.0
2016-Jun-22 01:32N 51°19' E 003°14'0 0.0
2016-Jun-22 00:32N 51°19' E 003°14'1 1.3
2016-Jun-21 23:34N 51°20' E 003°13'3 2.6
2016-Jun-21 22:34N 51°22' E 003°11'1212.1
2016-Jun-21 21:34N 51°21' E 002°51'8 7.8
2016-Jun-21 20:33N 51°25' E 002°41'1110.5
2016-Jun-21 19:33N 51°36' E 002°43'1414.2
2016-Jun-21 18:32N 51°50' E 002°42'1414.1
2016-Jun-21 17:31N 52°04' E 002°51'1415.2
2016-Jun-21 16:33N 52°15' E 003°05'1615.0
2016-Jun-21 15:29N 52°29' E 003°20'1414.6
2016-Jun-21 14:33N 52°40' E 003°33'1414.3
2016-Jun-21 13:33N 52°50' E 003°49'1514.8
2016-Jun-21 12:32N 53°01' E 004°07'1515.0
2016-Jun-21 11:33N 53°11' E 004°25'1515.2
2016-Jun-21 10:33N 53°25' E 004°35'1414.2
2016-Jun-21 09:33N 53°33' E 004°54'1515.1
2016-Jun-21 08:33N 53°38' E 005°18'1514.8
2016-Jun-21 07:33N 53°43' E 005°42'3014.9
2016-Jun-21 05:33N 53°51' E 006°31'1514.7
2016-Jun-21 04:33N 53°55' E 006°55'1514.9
2016-Jun-21 03:33N 53°58' E 007°20'1313.4
2016-Jun-21 02:33N 53°57' E 007°42'1111.5
2016-Jun-21 01:34N 53°51' E 007°60'1717.4
2016-Jun-21 00:33N 53°40' E 008°22'9 9.0
2016-Jun-20 23:33N 53°34' E 008°33'1 0.9
2016-Jun-20 22:33N 53°35' E 008°33'0 0.0
2016-Jun-20 21:33N 53°35' E 008°33'0 0.0
2016-Jun-20 20:33N 53°35' E 008°33'0 0.0
2016-Jun-20 19:33N 53°35' E 008°33'0 0.0
2016-Jun-20 18:33N 53°35' E 008°33'0 0.0
2016-Jun-20 17:33N 53°35' E 008°33'0 0.0
2016-Jun-20 16:33N 53°35' E 008°33'0 0.0
2016-Jun-20 15:33N 53°35' E 008°33'0 0.0
2016-Jun-20 14:30N 53°35' E 008°33'0 0.0
2016-Jun-20 13:33N 53°35' E 008°33'0 0.0
2016-Jun-20 12:33N 53°35' E 008°33'0 0.0
2016-Jun-20 11:33N 53°35' E 008°33'0 0.0
2016-Jun-20 10:27N 53°35' E 008°33'0 0.0
2016-Jun-20 09:33N 53°35' E 008°33'0 0.0
2016-Jun-20 08:33N 53°35' E 008°33'0 0.0
2016-Jun-20 07:33N 53°35' E 008°33'0 0.0
2016-Jun-20 06:27N 53°35' E 008°33'0 0.0
2016-Jun-20 05:33N 53°35' E 008°33'0 0.0
2016-Jun-20 04:33N 53°35' E 008°33'0 0.0
2016-Jun-20 03:33N 53°35' E 008°33'0 0.0
2016-Jun-20 02:33N 53°35' E 008°33'0 0.0
2016-Jun-20 01:33N 53°35' E 008°33'0 0.0
2016-Jun-20 00:33N 53°35' E 008°33'0 0.0
2016-Jun-19 23:33N 53°35' E 008°33'0 0.0
2016-Jun-19 22:27N 53°35' E 008°33'0 0.0
2016-Jun-19 21:33N 53°35' E 008°33'0 0.0
2016-Jun-19 20:33N 53°35' E 008°33'0 0.0
2016-Jun-19 19:30N 53°35' E 008°33'0 0.0
2016-Jun-19 18:33N 53°35' E 008°33'0 0.0
2016-Jun-19 17:33N 53°35' E 008°33'0 0.0
2016-Jun-19 16:33N 53°35' E 008°33'0 0.0
2016-Jun-19 15:33N 53°35' E 008°33'0 0.0
2016-Jun-19 14:33N 53°35' E 008°33'0 0.0
2016-Jun-19 13:33N 53°35' E 008°33'0 0.0
2016-Jun-19 12:33N 53°35' E 008°33'0 0.0
2016-Jun-19 11:33N 53°35' E 008°33'0 0.0
2016-Jun-19 10:30N 53°35' E 008°33'0 0.0
2016-Jun-19 09:33N 53°35' E 008°33'0 0.0
2016-Jun-19 08:33N 53°35' E 008°33'0 0.0
2016-Jun-19 07:30N 53°35' E 008°33'0 0.0
2016-Jun-19 06:33N 53°35' E 008°33'0 0.0
2016-Jun-19 05:30N 53°35' E 008°33'0 0.0
2016-Jun-19 04:33N 53°35' E 008°33'0 0.0
2016-Jun-19 03:33N 53°35' E 008°33'0 0.0
2016-Jun-19 02:33N 53°35' E 008°33'0 0.0
2016-Jun-19 01:33N 53°35' E 008°33'1 0.6
2016-Jun-19 00:33N 53°34' E 008°32'1111.5
2016-Jun-18 23:33N 53°42' E 008°19'1716.8
2016-Jun-18 22:33N 53°52' E 007°55'1312.5
2016-Jun-18 21:33N 53°54' E 007°34'1010.1
2016-Jun-18 20:33N 53°52' E 007°17'1717.3
2016-Jun-18 19:33N 53°48' E 006°49'1919.4
2016-Jun-18 18:33N 53°44' E 006°17'1919.3
2016-Jun-18 17:34N 53°38' E 005°46'1919.4
2016-Jun-18 16:34N 53°32' E 005°15'2019.4
2016-Jun-18 15:31N 53°24' E 004°44'1919.3
2016-Jun-18 14:33N 53°07' E 004°28'1919.3
2016-Jun-18 13:33N 52°51' E 004°12'1918.7
2016-Jun-18 12:33N 52°38' E 003°50'7318.0
2016-Jun-18 08:30N 51°43' E 002°32'1616.8
2016-Jun-18 07:33N 51°31' E 002°14'1616.2
2016-Jun-18 06:33N 51°16' E 002°05'1615.6
2016-Jun-18 05:34N 51°07' E 001°45'1615.7
2016-Jun-18 04:33N 50°55' E 001°29'1616.4
2016-Jun-18 03:33N 50°40' E 001°18'3616.8
2016-Jun-18 01:26N 50°24' E 000°28'1517.0
2016-Jun-18 00:34N 50°20' E 000°06'1717.0
2016-Jun-17 23:33N 50°16' W 000°20'1716.9
2016-Jun-17 22:34N 50°11' W 000°46'1817.6
2016-Jun-17 21:33N 50°07' W 001°12'5819.5
2016-Jun-17 18:34N 49°49' W 002°39'2019.5
2016-Jun-17 17:33N 49°47' W 003°09'1919.2
2016-Jun-17 16:33N 49°44' W 003°38'  
Track history (hours):
 
Tides and Currents Weather Stations Pressure Air Temp Water Temp Dewpoint Dewpoint Depression Visibility Wind Speed Wind Dir Waves Ship Positions

Tombarra

Last reported at 2016-Jun-25 10:26 UTC. Time now 2016-Jun-28 13:25 UTC.
Position N 49°48' W 004°35'.

Length 199 m; draft 10.4 m.

Type: Ship. MMSI: 232971000.

Date/timePositionNaut miles runAvg speedWind from/ knotsBaromVisibWave heightAir tempDewpointWater temp
2016-Jun-25 10:26N 49°48' W 004°35'1517.0
2016-Jun-25 09:33N 49°52' W 004°13'1616.4
2016-Jun-25 08:33N 49°57' W 003°48'1716.8
2016-Jun-25 07:33N 50°02' W 003°24'1817.9
2016-Jun-25 06:33N 50°08' W 002°57'1919.2
2016-Jun-25 05:34N 50°14' W 002°28'2820.7
2016-Jun-25 04:11N 50°22' W 001°46'1420.4
2016-Jun-25 03:31N 50°26' W 001°26'1818.6
2016-Jun-25 02:33N 50°33' W 000°60'1111.1
2016-Jun-25 01:33N 50°44' W 001°03'1212.0
2016-Jun-25 00:33N 50°50' W 001°19'4 3.7
2016-Jun-24 23:32N 50°53' W 001°24'0 0.0
2016-Jun-24 22:32N 50°53' W 001°24'0 0.0
2016-Jun-24 21:32N 50°53' W 001°24'0 0.0
2016-Jun-24 20:32N 50°53' W 001°24'0 0.0
2016-Jun-24 19:32N 50°53' W 001°24'0 0.0
2016-Jun-24 18:32N 50°53' W 001°24'0 0.0
2016-Jun-24 17:26N 50°53' W 001°24'0 0.0
2016-Jun-24 16:32N 50°53' W 001°24'0 0.0
2016-Jun-24 15:32N 50°53' W 001°24'0 0.0
2016-Jun-24 14:29N 50°53' W 001°24'0 0.0
2016-Jun-24 13:32N 50°53' W 001°24'0 0.0
2016-Jun-24 12:32N 50°53' W 001°24'0 0.0
2016-Jun-24 11:32N 50°53' W 001°24'0 0.0
2016-Jun-24 10:32N 50°53' W 001°24'0 0.0
2016-Jun-24 09:32N 50°53' W 001°24'0 0.0
2016-Jun-24 08:32N 50°53' W 001°24'0 0.0
2016-Jun-24 07:32N 50°53' W 001°24'0 0.0
2016-Jun-24 04:32N 50°53' W 001°24'0 0.1
2016-Jun-24 03:33N 50°53' W 001°23'6 5.7
2016-Jun-24 02:33N 50°49' W 001°18'1313.1
2016-Jun-24 01:34N 50°43' W 000°59'8 7.5
2016-Jun-24 00:33N 50°36' W 000°53'1211.5
2016-Jun-23 23:33N 50°35' W 000°35'1616.2
2016-Jun-23 22:34N 50°33' W 000°10'1615.9
2016-Jun-23 21:33N 50°35' E 000°15'2517.2
2016-Jun-23 20:06N 50°45' E 000°51'1019.1
2016-Jun-23 19:33N 50°52' E 001°04'1919.1
2016-Jun-23 18:33N 51°04' E 001°27'1817.8
2016-Jun-23 17:33N 51°15' E 001°49'1414.4
2016-Jun-23 16:33N 51°23' E 002°08'1616.0
2016-Jun-23 15:33N 51°23' E 002°34'1414.0
2016-Jun-23 14:33N 51°23' E 002°56'1010.2
2016-Jun-23 13:33N 51°21' E 003°12'2 1.7
2016-Jun-23 12:33N 51°20' E 003°13'1 0.8
2016-Jun-23 11:32N 51°19' E 003°14'0 0.0
2016-Jun-23 10:32N 51°19' E 003°14'0 0.0
2016-Jun-23 09:32N 51°19' E 003°14'0 0.0
2016-Jun-23 08:32N 51°19' E 003°14'0 0.0
2016-Jun-23 07:32N 51°19' E 003°14'0 0.0
2016-Jun-23 05:32N 51°19' E 003°14'0 0.0
2016-Jun-23 04:32N 51°19' E 003°14'0 0.0
2016-Jun-23 03:32N 51°19' E 003°14'0 0.0
2016-Jun-23 02:32N 51°19' E 003°14'0 0.0
2016-Jun-23 01:29N 51°19' E 003°14'0 0.0
2016-Jun-23 00:32N 51°19' E 003°14'0 0.0
2016-Jun-22 23:29N 51°19' E 003°14'0 0.0
2016-Jun-22 22:29N 51°19' E 003°14'0 0.0
2016-Jun-22 21:32N 51°19' E 003°14'0 0.0
2016-Jun-22 20:32N 51°19' E 003°14'0 0.0
2016-Jun-22 19:32N 51°19' E 003°14'0 0.0
2016-Jun-22 18:32N 51°19' E 003°14'0 0.0
2016-Jun-22 17:32N 51°19' E 003°14'0 0.0
2016-Jun-22 16:32N 51°19' E 003°14'0 0.0
2016-Jun-22 15:32N 51°19' E 003°14'0 0.0
2016-Jun-22 14:32N 51°19' E 003°14'0 0.0
2016-Jun-22 13:32N 51°19' E 003°14'0 0.0
2016-Jun-22 12:32N 51°19' E 003°14'0 0.0
2016-Jun-22 11:32N 51°19' E 003°14'0 0.0
2016-Jun-22 10:32N 51°19' E 003°14'0 0.0
2016-Jun-22 09:32N 51°19' E 003°14'0 0.0
2016-Jun-22 08:29N 51°19' E 003°14'0 0.0
2016-Jun-22 07:29N 51°19' E 003°14'0 0.0
2016-Jun-22 06:32N 51°19' E 003°14'0 0.0
2016-Jun-22 05:32N 51°19' E 003°14'0 0.0
2016-Jun-22 04:32N 51°19' E 003°14'0 0.0
2016-Jun-22 03:32N 51°19' E 003°14'0 0.0
2016-Jun-22 02:29N 51°19' E 003°14'0 0.0
2016-Jun-22 01:32N 51°19' E 003°14'0 0.0
2016-Jun-22 00:32N 51°19' E 003°14'1 1.3
2016-Jun-21 23:34N 51°20' E 003°13'3 2.6
2016-Jun-21 22:34N 51°22' E 003°11'1212.1
2016-Jun-21 21:34N 51°21' E 002°51'8 7.8
2016-Jun-21 20:33N 51°25' E 002°41'1110.5
2016-Jun-21 19:33N 51°36' E 002°43'1414.2
2016-Jun-21 18:32N 51°50' E 002°42'1414.1
2016-Jun-21 17:31N 52°04' E 002°51'1415.2
2016-Jun-21 16:33N 52°15' E 003°05'1615.0
2016-Jun-21 15:29N 52°29' E 003°20'1414.6
2016-Jun-21 14:33N 52°40' E 003°33'1414.3
2016-Jun-21 13:33N 52°50' E 003°49'1514.8
2016-Jun-21 12:32N 53°01' E 004°07'1515.0
2016-Jun-21 11:33N 53°11' E 004°25'1515.2
2016-Jun-21 10:33N 53°25' E 004°35'1414.2
2016-Jun-21 09:33N 53°33' E 004°54'1515.1
2016-Jun-21 08:33N 53°38' E 005°18'1514.8
2016-Jun-21 07:33N 53°43' E 005°42'3014.9
2016-Jun-21 05:33N 53°51' E 006°31'1514.7
2016-Jun-21 04:33N 53°55' E 006°55'1514.9
2016-Jun-21 03:33N 53°58' E 007°20'1313.4
2016-Jun-21 02:33N 53°57' E 007°42'1111.5
2016-Jun-21 01:34N 53°51' E 007°60'1717.4
2016-Jun-21 00:33N 53°40' E 008°22'9 9.0
2016-Jun-20 23:33N 53°34' E 008°33'1 0.9
2016-Jun-20 22:33N 53°35' E 008°33'0 0.0
2016-Jun-20 21:33N 53°35' E 008°33'0 0.0
2016-Jun-20 20:33N 53°35' E 008°33'0 0.0
2016-Jun-20 19:33N 53°35' E 008°33'0 0.0
2016-Jun-20 18:33N 53°35' E 008°33'0 0.0
2016-Jun-20 17:33N 53°35' E 008°33'0 0.0
2016-Jun-20 16:33N 53°35' E 008°33'0 0.0
2016-Jun-20 15:33N 53°35' E 008°33'0 0.0
2016-Jun-20 14:30N 53°35' E 008°33'0 0.0
2016-Jun-20 13:33N 53°35' E 008°33'0 0.0
2016-Jun-20 12:33N 53°35' E 008°33'0 0.0
2016-Jun-20 11:33N 53°35' E 008°33'0 0.0
2016-Jun-20 10:27N 53°35' E 008°33'0 0.0
2016-Jun-20 09:33N 53°35' E 008°33'0 0.0
2016-Jun-20 08:33N 53°35' E 008°33'0 0.0
2016-Jun-20 07:33N 53°35' E 008°33'0 0.0
2016-Jun-20 06:27N 53°35' E 008°33'0 0.0
2016-Jun-20 05:33N 53°35' E 008°33'0 0.0
2016-Jun-20 04:33N 53°35' E 008°33'0 0.0
2016-Jun-20 03:33N 53°35' E 008°33'0 0.0
2016-Jun-20 02:33N 53°35' E 008°33'0 0.0
2016-Jun-20 01:33N 53°35' E 008°33'0 0.0
2016-Jun-20 00:33N 53°35' E 008°33'0 0.0
2016-Jun-19 23:33N 53°35' E 008°33'0 0.0
2016-Jun-19 22:27N 53°35' E 008°33'0 0.0
2016-Jun-19 21:33N 53°35' E 008°33'0 0.0
2016-Jun-19 20:33N 53°35' E 008°33'0 0.0
2016-Jun-19 19:30N 53°35' E 008°33'0 0.0
2016-Jun-19 18:33N 53°35' E 008°33'0 0.0
2016-Jun-19 17:33N 53°35' E 008°33'0 0.0
2016-Jun-19 16:33N 53°35' E 008°33'0 0.0
2016-Jun-19 15:33N 53°35' E 008°33'0 0.0
2016-Jun-19 14:33N 53°35' E 008°33'0 0.0
2016-Jun-19 13:33N 53°35' E 008°33'0 0.0
2016-Jun-19 12:33N 53°35' E 008°33'0 0.0
2016-Jun-19 11:33N 53°35' E 008°33'0 0.0
2016-Jun-19 10:30N 53°35' E 008°33'0 0.0
2016-Jun-19 09:33N 53°35' E 008°33'0 0.0
2016-Jun-19 08:33N 53°35' E 008°33'0 0.0
2016-Jun-19 07:30N 53°35' E 008°33'0 0.0
2016-Jun-19 06:33N 53°35' E 008°33'0 0.0
2016-Jun-19 05:30N 53°35' E 008°33'0 0.0
2016-Jun-19 04:33N 53°35' E 008°33'0 0.0
2016-Jun-19 03:33N 53°35' E 008°33'0 0.0
2016-Jun-19 02:33N 53°35' E 008°33'0 0.0
2016-Jun-19 01:33N 53°35' E 008°33'1 0.6
2016-Jun-19 00:33N 53°34' E 008°32'1111.5
2016-Jun-18 23:33N 53°42' E 008°19'1716.8
2016-Jun-18 22:33N 53°52' E 007°55'1312.5
2016-Jun-18 21:33N 53°54' E 007°34'1010.1
2016-Jun-18 20:33N 53°52' E 007°17'1717.3
2016-Jun-18 19:33N 53°48' E 006°49'1919.4
2016-Jun-18 18:33N 53°44' E 006°17'1919.3
2016-Jun-18 17:34N 53°38' E 005°46'1919.4
2016-Jun-18 16:34N 53°32' E 005°15'2019.4
2016-Jun-18 15:31N 53°24' E 004°44'1919.3
2016-Jun-18 14:33N 53°07' E 004°28'1919.3
2016-Jun-18 13:33N 52°51' E 004°12'1918.7
2016-Jun-18 12:33N 52°38' E 003°50'7318.0
2016-Jun-18 08:30N 51°43' E 002°32'1616.8
2016-Jun-18 07:33N 51°31' E 002°14'1616.2
2016-Jun-18 06:33N 51°16' E 002°05'1615.6
2016-Jun-18 05:34N 51°07' E 001°45'1615.7
2016-Jun-18 04:33N 50°55' E 001°29'1616.4
2016-Jun-18 03:33N 50°40' E 001°18'3616.8
2016-Jun-18 01:26N 50°24' E 000°28'1517.0
2016-Jun-18 00:34N 50°20' E 000°06'1717.0
2016-Jun-17 23:33N 50°16' W 000°20'1716.9
2016-Jun-17 22:34N 50°11' W 000°46'1817.6
2016-Jun-17 21:33N 50°07' W 001°12'5819.5
2016-Jun-17 18:34N 49°49' W 002°39'2019.5
2016-Jun-17 17:33N 49°47' W 003°09'1919.2
2016-Jun-17 16:33N 49°44' W 003°38'  

Dump ship's entire track history